createdAt,value
2018-06-16T00:00:52.491Z,18.02
2018-06-16T00:03:20.542Z,17.98
2018-06-16T00:05:48.863Z,17.95
2018-06-16T00:08:17.037Z,17.90
2018-06-16T00:10:45.074Z,17.87
2018-06-16T00:13:13.139Z,17.84
2018-06-16T00:15:41.187Z,17.84
2018-06-16T00:18:09.257Z,17.83
2018-06-16T00:20:37.325Z,17.83
2018-06-16T00:23:05.452Z,17.85
2018-06-16T00:25:33.520Z,17.83
2018-06-16T00:28:01.629Z,17.84
2018-06-16T00:30:29.672Z,17.86
2018-06-16T00:32:57.732Z,17.87
2018-06-16T00:35:25.812Z,17.84
2018-06-16T00:37:53.966Z,17.86
2018-06-16T00:40:22.036Z,17.91
2018-06-16T00:42:50.119Z,17.91
2018-06-16T00:45:18.319Z,17.92
2018-06-16T00:47:46.371Z,17.95
2018-06-16T00:50:14.440Z,17.97
2018-06-16T00:52:42.496Z,18.01
2018-06-16T00:55:10.577Z,18.05
2018-06-16T00:57:46.023Z,18.09
2018-06-16T01:00:14.710Z,18.08
2018-06-16T01:02:42.745Z,18.12
2018-06-16T01:05:17.135Z,18.17
2018-06-16T01:07:45.187Z,18.21
2018-06-16T01:10:13.430Z,18.15
2018-06-16T01:12:41.492Z,18.31
2018-06-16T01:15:09.787Z,18.34
2018-06-16T01:17:37.840Z,18.39
2018-06-16T01:20:05.900Z,18.42
2018-06-16T01:22:34.170Z,18.47
2018-06-16T01:25:02.258Z,18.50
2018-06-16T01:27:30.651Z,18.55
2018-06-16T01:29:59.016Z,18.61
2018-06-16T01:32:27.098Z,18.66
2018-06-16T01:34:55.153Z,18.70
2018-06-16T01:37:23.207Z,18.67
2018-06-16T01:39:51.303Z,18.62
2018-06-16T01:42:19.376Z,18.61
2018-06-16T01:44:47.440Z,18.61
2018-06-16T01:47:15.483Z,18.56
2018-06-16T01:49:43.589Z,18.52
2018-06-16T01:52:11.671Z,18.48
2018-06-16T01:54:39.864Z,18.48
2018-06-16T01:57:07.968Z,18.49
2018-06-16T01:59:36.070Z,18.51
2018-06-16T02:02:04.143Z,18.52
2018-06-16T02:04:32.291Z,18.54
2018-06-16T02:07:00.421Z,18.63
2018-06-16T02:09:28.492Z,18.71
2018-06-16T02:11:56.592Z,18.83
2018-06-16T02:14:24.735Z,18.92
2018-06-16T02:16:52.795Z,19.04
2018-06-16T02:19:20.867Z,19.14
2018-06-16T02:21:48.936Z,19.24
2018-06-16T02:24:17.016Z,19.31
2018-06-16T02:26:45.112Z,19.40
2018-06-16T02:29:13.207Z,19.46
2018-06-16T02:31:41.317Z,19.51
2018-06-16T02:34:09.409Z,19.58
2018-06-16T02:36:37.473Z,19.63
2018-06-16T02:39:07.636Z,19.66
2018-06-16T02:41:35.731Z,19.70
2018-06-16T02:44:03.783Z,19.72
2018-06-16T02:46:31.824Z,19.74
2018-06-16T02:48:59.920Z,19.76
2018-06-16T02:51:28.005Z,19.75
2018-06-16T02:53:56.109Z,19.74
2018-06-16T02:56:24.195Z,19.73
2018-06-16T02:58:52.233Z,19.70
2018-06-16T03:01:20.309Z,19.67
2018-06-16T03:03:48.349Z,19.65
2018-06-16T03:06:16.436Z,19.63
2018-06-16T03:08:44.484Z,19.60
2018-06-16T03:11:12.556Z,19.59
2018-06-16T03:13:40.630Z,19.59
2018-06-16T03:16:08.733Z,19.58
2018-06-16T03:18:36.798Z,19.58
2018-06-16T03:21:04.909Z,19.57
2018-06-16T03:23:33.035Z,19.58
2018-06-16T03:26:01.091Z,19.59
2018-06-16T03:28:29.326Z,19.61
2018-06-16T03:30:57.372Z,19.61
2018-06-16T03:35:59.964Z,19.54
2018-06-16T03:38:28.153Z,19.50
2018-06-16T03:40:56.387Z,19.46
2018-06-16T03:43:24.575Z,19.46
2018-06-16T03:45:52.655Z,19.48
2018-06-16T03:48:20.707Z,19.48
2018-06-16T03:50:49.121Z,19.46
2018-06-16T03:53:17.182Z,19.48
2018-06-16T03:55:45.252Z,19.51
2018-06-16T03:58:13.541Z,19.55
2018-06-16T04:00:41.598Z,19.60
2018-06-16T04:03:09.675Z,19.64
2018-06-16T04:05:37.736Z,19.66
2018-06-16T04:08:05.792Z,19.71
2018-06-16T04:10:33.916Z,19.75
2018-06-16T04:13:01.988Z,19.78
2018-06-16T04:15:30.106Z,19.81
2018-06-16T04:17:58.180Z,19.84
2018-06-16T04:20:26.219Z,19.87
2018-06-16T04:22:54.279Z,19.90
2018-06-16T04:25:22.330Z,19.95
2018-06-16T04:27:50.472Z,20.02
2018-06-16T04:30:18.534Z,20.08
2018-06-16T04:32:46.591Z,20.14
2018-06-16T04:35:14.660Z,20.18
2018-06-16T04:37:42.723Z,20.25
2018-06-16T04:40:10.943Z,20.32
2018-06-16T04:42:38.984Z,20.39
2018-06-16T04:45:07.071Z,20.46
2018-06-16T04:47:35.476Z,20.56
2018-06-16T04:50:03.540Z,20.65
2018-06-16T04:52:31.609Z,20.67
2018-06-16T04:54:59.663Z,20.76
2018-06-16T04:57:27.838Z,20.79
2018-06-16T04:59:55.886Z,20.80
2018-06-16T05:02:23.948Z,20.87
2018-06-16T05:04:52.013Z,20.91
2018-06-16T05:07:20.115Z,20.97
2018-06-16T05:09:48.186Z,21.03
2018-06-16T05:12:16.256Z,21.10
2018-06-16T05:14:44.328Z,21.23
2018-06-16T05:17:12.409Z,21.30
2018-06-16T05:19:40.520Z,21.38
2018-06-16T05:22:08.588Z,21.44
2018-06-16T05:24:36.660Z,21.27
2018-06-16T05:27:04.719Z,21.59
2018-06-16T05:29:32.773Z,21.63
2018-06-16T05:32:00.854Z,21.72
2018-06-16T05:34:28.919Z,21.89
2018-06-16T05:36:57.071Z,22.06
2018-06-16T05:39:25.122Z,22.23
2018-06-16T05:41:53.196Z,22.48
2018-06-16T05:44:21.281Z,22.82
2018-06-16T05:46:49.363Z,23.00
2018-06-16T05:49:17.407Z,23.38
2018-06-16T05:51:45.540Z,23.67
2018-06-16T05:54:13.624Z,23.89
2018-06-16T05:56:41.720Z,24.03
2018-06-16T05:59:09.792Z,24.11
2018-06-16T06:01:38.003Z,24.26
2018-06-16T06:04:06.218Z,24.57
2018-06-16T06:06:34.283Z,24.76
2018-06-16T06:09:02.375Z,24.86
2018-06-16T06:11:30.386Z,24.98
2018-06-16T06:13:58.863Z,25.11
2018-06-16T06:16:26.922Z,25.22
2018-06-16T06:18:55.214Z,25.39
2018-06-16T06:21:23.290Z,25.62
2018-06-16T06:23:51.340Z,25.76
2018-06-16T06:26:19.381Z,26.05
2018-06-16T06:28:47.418Z,26.41
2018-06-16T06:31:15.487Z,26.82
2018-06-16T06:33:43.550Z,27.11
2018-06-16T06:36:11.680Z,27.29
2018-06-16T06:38:39.699Z,27.33
2018-06-16T06:41:07.908Z,27.36
2018-06-16T06:43:35.959Z,27.38
2018-06-16T06:46:04.028Z,27.51
2018-06-16T06:48:32.152Z,27.44
2018-06-16T06:51:00.181Z,27.27
2018-06-16T06:53:28.223Z,27.21
2018-06-16T06:55:57.079Z,27.18
2018-06-16T06:58:25.108Z,27.12
2018-06-16T07:00:53.163Z,26.96
2018-06-16T07:03:21.227Z,26.90
2018-06-16T07:05:49.247Z,26.99
2018-06-16T07:08:17.355Z,27.10
2018-06-16T07:10:45.462Z,27.09
2018-06-16T07:13:13.515Z,26.97
2018-06-16T07:15:41.548Z,26.97
2018-06-16T07:18:09.632Z,27.03
2018-06-16T07:20:38.037Z,27.23
2018-06-16T07:23:06.273Z,27.42
2018-06-16T07:25:34.324Z,27.56
2018-06-16T07:28:02.380Z,27.56
2018-06-16T07:30:30.423Z,27.47
2018-06-16T07:32:58.515Z,27.25
2018-06-16T07:35:26.567Z,27.03
2018-06-16T07:37:54.746Z,26.82
2018-06-16T07:40:22.809Z,26.59
2018-06-16T07:42:50.853Z,26.50
2018-06-16T07:45:18.945Z,26.40
2018-06-16T07:47:46.984Z,26.26
2018-06-16T07:50:15.256Z,26.38
2018-06-16T07:52:43.300Z,26.41
2018-06-16T07:55:11.356Z,26.50
2018-06-16T07:57:39.848Z,26.60
2018-06-16T08:00:07.930Z,26.81
2018-06-16T08:02:35.987Z,27.03
2018-06-16T08:05:04.051Z,27.14
2018-06-16T08:07:32.122Z,27.34
2018-06-16T08:10:00.214Z,27.67
2018-06-16T08:12:28.279Z,28.04
2018-06-16T08:14:56.317Z,28.37
2018-06-16T08:17:24.368Z,28.61
2018-06-16T08:19:52.437Z,28.86
2018-06-16T08:22:20.494Z,28.96
2018-06-16T08:24:48.577Z,29.17
2018-06-16T08:27:16.608Z,29.49
2018-06-16T08:29:44.689Z,29.70
2018-06-16T08:32:12.751Z,29.94
2018-06-16T08:34:40.824Z,30.04
2018-06-16T08:37:08.907Z,30.22
2018-06-16T08:39:36.951Z,30.40
2018-06-16T08:42:05.260Z,30.52
2018-06-16T08:44:33.309Z,30.73
2018-06-16T08:47:01.395Z,30.86
2018-06-16T08:49:29.450Z,31.03
2018-06-16T08:51:57.479Z,31.02
2018-06-16T08:54:25.544Z,31.12
2018-06-16T08:56:53.721Z,31.25
2018-06-16T08:59:21.808Z,31.19
2018-06-16T09:01:49.859Z,31.27
2018-06-16T09:04:17.947Z,31.25
2018-06-16T09:06:46.023Z,31.23
2018-06-16T09:09:14.098Z,31.08
2018-06-16T09:11:42.169Z,31.00
2018-06-16T09:14:10.291Z,30.97
2018-06-16T09:16:38.333Z,30.97
2018-06-16T09:19:06.417Z,31.00
2018-06-16T09:21:34.561Z,30.71
2018-06-16T09:24:02.600Z,30.75
2018-06-16T09:26:30.656Z,30.81
2018-06-16T09:28:58.736Z,30.84
2018-06-16T09:31:26.805Z,30.82
2018-06-16T09:33:54.857Z,30.80
2018-06-16T09:36:22.948Z,30.83
2018-06-16T09:38:51.020Z,30.98
2018-06-16T09:41:19.175Z,30.98
2018-06-16T09:43:47.400Z,30.76
2018-06-16T09:46:15.508Z,30.57
2018-06-16T09:48:43.556Z,30.49
2018-06-16T09:51:11.623Z,30.60
2018-06-16T09:53:39.889Z,30.67
2018-06-16T09:56:08.061Z,30.71
2018-06-16T09:58:36.145Z,30.90
2018-06-16T10:01:04.266Z,31.07
2018-06-16T10:03:32.329Z,31.10
2018-06-16T10:06:00.404Z,31.09
2018-06-16T10:08:28.494Z,31.13
2018-06-16T10:10:56.575Z,31.02
2018-06-16T10:13:24.633Z,30.87
2018-06-16T10:15:52.800Z,30.68
2018-06-16T10:18:20.801Z,30.44
2018-06-16T10:20:48.858Z,30.32
2018-06-16T10:23:16.924Z,30.20
2018-06-16T10:25:45.036Z,30.14
2018-06-16T10:28:13.108Z,30.12
2018-06-16T10:30:41.488Z,29.96
2018-06-16T10:33:09.534Z,29.91
2018-06-16T10:35:37.575Z,29.87
2018-06-16T10:38:05.938Z,29.82
2018-06-16T10:40:33.979Z,29.87
2018-06-16T10:43:02.067Z,29.85
2018-06-16T10:45:30.196Z,29.78
2018-06-16T10:47:58.529Z,29.64
2018-06-16T10:50:27.327Z,29.60
2018-06-16T10:52:55.377Z,29.37
2018-06-16T10:55:23.429Z,29.23
2018-06-16T10:57:51.463Z,29.09
2018-06-16T11:00:19.617Z,29.17
2018-06-16T11:02:47.679Z,29.31
2018-06-16T11:05:15.743Z,29.42
2018-06-16T11:07:43.951Z,29.39
2018-06-16T11:10:12.204Z,29.47
2018-06-16T11:12:40.293Z,29.56
2018-06-16T11:15:08.613Z,29.58
2018-06-16T11:17:36.674Z,29.35
2018-06-16T11:20:04.805Z,29.24
2018-06-16T11:22:32.967Z,29.28
2018-06-16T11:25:01.110Z,29.40
2018-06-16T11:27:29.219Z,29.49
2018-06-16T11:29:57.377Z,29.59
2018-06-16T11:32:25.501Z,29.61
2018-06-16T11:34:53.791Z,29.66
2018-06-16T11:37:21.901Z,29.46
2018-06-16T11:39:50.064Z,28.83
2018-06-16T11:42:18.205Z,28.82
2018-06-16T11:44:46.379Z,28.89
2018-06-16T11:47:14.435Z,29.07
2018-06-16T11:49:42.525Z,29.11
2018-06-16T11:52:10.680Z,29.10
2018-06-16T11:54:38.768Z,29.12
2018-06-16T11:57:06.872Z,29.18
2018-06-16T11:59:35.145Z,29.05
2018-06-16T12:02:03.211Z,28.98
2018-06-16T12:04:31.368Z,28.88
2018-06-16T12:06:59.669Z,28.87
2018-06-16T12:09:27.776Z,28.95
2018-06-16T12:11:55.854Z,28.98
2018-06-16T12:14:23.899Z,29.06
2018-06-16T12:16:52.055Z,29.06
2018-06-16T12:19:20.546Z,28.86
2018-06-16T12:21:48.592Z,29.17
2018-06-16T12:24:16.688Z,29.27
2018-06-16T12:26:44.796Z,29.30
2018-06-16T12:29:12.860Z,29.13
2018-06-16T12:31:41.051Z,28.98
2018-06-16T12:34:09.792Z,28.99
2018-06-16T12:36:38.406Z,29.06
2018-06-16T12:39:08.824Z,29.16
2018-06-16T12:41:37.456Z,29.11
2018-06-16T12:44:06.236Z,29.24
2018-06-16T12:46:34.898Z,29.30
2018-06-16T12:49:03.655Z,29.32
2018-06-16T12:51:31.718Z,29.43
2018-06-16T12:54:00.371Z,29.51
2018-06-16T12:56:28.449Z,29.46
2018-06-16T12:58:56.679Z,28.91
2018-06-16T13:01:24.722Z,29.13
2018-06-16T13:03:53.265Z,29.23
2018-06-16T13:06:21.517Z,29.22
2018-06-16T13:08:49.617Z,29.30
2018-06-16T13:11:17.668Z,29.33
2018-06-16T13:13:45.750Z,29.24
2018-06-16T13:16:13.859Z,29.12
2018-06-16T13:18:41.931Z,29.04
2018-06-16T13:21:09.996Z,29.04
2018-06-16T13:23:38.083Z,29.14
2018-06-16T13:26:06.173Z,29.16
2018-06-16T13:28:34.269Z,29.21
2018-06-16T13:31:02.358Z,29.18
2018-06-16T13:33:30.437Z,29.11
2018-06-16T13:35:58.517Z,29.01
2018-06-16T13:38:26.593Z,28.98
2018-06-16T13:40:54.668Z,28.97
2018-06-16T13:43:22.771Z,28.88
2018-06-16T13:45:50.812Z,28.72
2018-06-16T13:48:18.884Z,28.54
2018-06-16T13:50:46.951Z,28.41
2018-06-16T13:53:15.001Z,28.23
2018-06-16T13:55:43.075Z,28.01
2018-06-16T13:58:11.141Z,27.91
2018-06-16T14:00:39.199Z,27.69
2018-06-16T14:03:07.300Z,27.81
2018-06-16T14:05:35.419Z,27.85
2018-06-16T14:08:03.459Z,27.75
2018-06-16T14:10:31.775Z,27.48
2018-06-16T14:12:59.866Z,27.61
2018-06-16T14:15:27.924Z,27.60
2018-06-16T14:17:56.004Z,27.70
2018-06-16T14:20:24.051Z,27.78
2018-06-16T14:22:52.104Z,27.73
2018-06-16T14:25:20.240Z,27.72
2018-06-16T14:27:48.367Z,27.80
2018-06-16T14:30:16.472Z,27.84
2018-06-16T14:32:44.556Z,27.86
2018-06-16T14:35:12.633Z,27.93
2018-06-16T14:37:40.704Z,27.86
2018-06-16T14:40:08.772Z,27.92
2018-06-16T14:42:36.908Z,27.73
2018-06-16T14:45:05.092Z,28.01
2018-06-16T14:47:33.232Z,28.06
2018-06-16T14:50:01.445Z,28.11
2018-06-16T14:52:29.664Z,28.11
2018-06-16T14:54:58.180Z,28.13
2018-06-16T14:57:26.260Z,28.08
2018-06-16T14:59:54.376Z,27.87
2018-06-16T15:02:22.456Z,27.88
2018-06-16T15:04:50.701Z,27.84
2018-06-16T15:07:18.688Z,27.88
2018-06-16T15:09:46.784Z,27.90
2018-06-16T15:12:14.876Z,27.75
2018-06-16T15:14:42.950Z,27.72
2018-06-16T15:17:11.048Z,27.61
2018-06-16T15:19:39.157Z,27.59
2018-06-16T15:22:07.251Z,27.63
2018-06-16T15:24:35.300Z,27.84
2018-06-16T15:27:03.553Z,28.04
2018-06-16T15:29:31.625Z,28.12
2018-06-16T15:31:59.710Z,28.11
2018-06-16T15:34:27.811Z,28.10
2018-06-16T15:36:55.929Z,28.08
2018-06-16T15:39:24.107Z,28.06
2018-06-16T15:41:52.211Z,28.02
2018-06-16T15:44:20.338Z,27.97
2018-06-16T15:46:48.519Z,27.88
2018-06-16T15:49:16.594Z,27.87
2018-06-16T15:51:44.673Z,27.81
2018-06-16T15:54:12.745Z,27.76
2018-06-16T15:56:40.901Z,27.81
2018-06-16T15:59:09.035Z,27.75
2018-06-16T16:01:37.119Z,27.70
2018-06-16T16:04:05.258Z,27.68
2018-06-16T16:06:33.299Z,27.68
2018-06-16T16:09:01.394Z,27.66
2018-06-16T16:11:29.479Z,27.62
2018-06-16T16:13:57.546Z,27.56
2018-06-16T16:16:25.612Z,27.53
2018-06-16T16:18:53.658Z,27.47
2018-06-16T16:21:21.750Z,27.44
2018-06-16T16:23:49.828Z,27.44
2018-06-16T16:26:17.876Z,27.51
2018-06-16T16:28:46.029Z,27.54
2018-06-16T16:31:14.439Z,27.57
2018-06-16T16:33:42.526Z,27.57
2018-06-16T16:36:10.663Z,27.50
2018-06-16T16:38:38.902Z,27.44
2018-06-16T16:41:07.022Z,27.37
2018-06-16T16:43:35.118Z,27.39
2018-06-16T16:46:03.271Z,27.44
2018-06-16T16:48:31.547Z,27.49
2018-06-16T16:50:59.616Z,27.56
2018-06-16T16:53:27.688Z,27.60
2018-06-16T16:55:55.768Z,27.73
2018-06-16T16:58:23.851Z,27.73
2018-06-16T17:00:51.944Z,27.62
2018-06-16T17:03:20.012Z,27.55
2018-06-16T17:05:48.360Z,27.49
2018-06-16T17:08:16.533Z,27.38
2018-06-16T17:10:44.709Z,27.27
2018-06-16T17:15:53.387Z,27.23
2018-06-16T17:18:21.543Z,27.22
2018-06-16T17:20:56.076Z,27.27
2018-06-16T17:23:24.191Z,27.33
2018-06-16T17:25:52.262Z,27.31
2018-06-16T17:28:20.417Z,27.17
2018-06-16T17:30:48.484Z,26.95
2018-06-16T17:33:16.561Z,26.84
2018-06-16T17:35:44.665Z,26.73
2018-06-16T17:38:12.746Z,26.68
2018-06-16T17:40:40.803Z,26.60
2018-06-16T17:43:08.936Z,26.45
2018-06-16T17:45:37.133Z,26.38
2018-06-16T17:48:05.193Z,26.32
2018-06-16T17:50:33.283Z,26.27
2018-06-16T17:53:01.349Z,26.23
2018-06-16T17:55:29.442Z,26.08
2018-06-16T17:57:57.528Z,25.99
2018-06-16T18:00:25.569Z,25.87
2018-06-16T18:02:53.665Z,25.80
2018-06-16T18:05:21.751Z,25.75
2018-06-16T18:07:49.792Z,25.62
2018-06-16T18:10:17.902Z,25.58
2018-06-16T18:12:45.952Z,25.55
2018-06-16T18:15:13.998Z,25.52
2018-06-16T18:17:42.151Z,25.48
2018-06-16T18:20:10.163Z,25.40
2018-06-16T18:22:38.239Z,25.29
2018-06-16T18:25:06.285Z,25.21
2018-06-16T18:27:34.339Z,25.17
2018-06-16T18:30:02.360Z,25.14
2018-06-16T18:32:30.428Z,25.09
2018-06-16T18:34:58.472Z,25.08
2018-06-16T18:37:26.543Z,25.06
2018-06-16T18:39:54.610Z,25.04
2018-06-16T18:42:22.655Z,25.00
2018-06-16T18:44:50.788Z,24.98
2018-06-16T18:47:18.843Z,24.98
2018-06-16T18:49:47.106Z,24.96
2018-06-16T18:52:15.288Z,24.92
2018-06-16T18:54:43.341Z,24.89
2018-06-16T18:57:11.387Z,24.86
2018-06-16T18:59:39.660Z,24.83
2018-06-16T19:02:07.756Z,24.79
2018-06-16T19:04:35.920Z,24.75
2018-06-16T19:07:04.031Z,24.69
2018-06-16T19:09:32.113Z,24.66
2018-06-16T19:12:00.252Z,24.62
2018-06-16T19:14:28.639Z,24.59
2018-06-16T19:16:56.713Z,24.56
2018-06-16T19:19:25.259Z,24.55
2018-06-16T19:21:53.356Z,24.52
2018-06-16T19:24:21.589Z,24.49
2018-06-16T19:26:49.744Z,24.47
2018-06-16T19:29:17.810Z,24.46
2018-06-16T19:31:45.906Z,24.44
2018-06-16T19:34:13.951Z,24.44
2018-06-16T19:36:42.013Z,24.38
2018-06-16T19:39:11.643Z,24.29
2018-06-16T19:41:39.701Z,24.18
2018-06-16T19:44:08.857Z,24.10
2018-06-16T19:46:37.063Z,23.80
2018-06-16T19:49:05.529Z,23.39
2018-06-16T19:51:33.746Z,22.82
2018-06-16T19:54:02.075Z,22.47
2018-06-16T19:56:30.225Z,22.13
2018-06-16T19:58:58.898Z,21.88
2018-06-16T20:01:27.667Z,21.65
2018-06-16T20:03:56.162Z,21.45
2018-06-16T20:06:24.264Z,21.24
2018-06-16T20:08:52.544Z,21.02
2018-06-16T20:11:21.235Z,20.74
2018-06-16T20:13:49.592Z,20.42
2018-06-16T20:16:17.675Z,19.91
2018-06-16T20:18:45.908Z,19.81
2018-06-16T20:21:14.063Z,19.76
2018-06-16T20:23:42.318Z,19.68
2018-06-16T20:26:10.426Z,19.62
2018-06-16T20:28:38.909Z,19.53
2018-06-16T20:31:07.048Z,19.52
2018-06-16T20:33:35.199Z,19.49
2018-06-16T20:36:03.322Z,19.46
2018-06-16T20:38:31.555Z,19.42
2018-06-16T20:40:59.622Z,19.34
2018-06-16T20:43:28.004Z,19.29
2018-06-16T20:45:56.112Z,19.17
2018-06-16T20:48:24.720Z,19.18
2018-06-16T20:50:53.125Z,19.12
2018-06-16T20:53:21.244Z,19.14
2018-06-16T20:55:49.401Z,19.15
2018-06-16T20:58:17.768Z,19.16
2018-06-16T21:00:45.991Z,19.15
2018-06-16T21:03:14.069Z,19.12
2018-06-16T21:05:42.240Z,19.12
2018-06-16T21:08:10.512Z,19.11
2018-06-16T21:10:38.825Z,19.07
2018-06-16T21:13:06.990Z,19.09
2018-06-16T21:15:35.087Z,19.09
2018-06-16T21:18:03.519Z,19.12
2018-06-16T21:20:31.641Z,19.16
2018-06-16T21:22:59.773Z,19.12
2018-06-16T21:25:27.877Z,19.09
2018-06-16T21:27:56.031Z,19.09
2018-06-16T21:30:27.746Z,19.07
2018-06-16T21:32:55.941Z,19.04
2018-06-16T21:35:24.069Z,18.96
2018-06-16T21:37:52.131Z,18.90
2018-06-16T21:40:20.208Z,18.78
2018-06-16T21:42:48.348Z,18.63
2018-06-16T21:45:16.428Z,18.51
2018-06-16T21:47:44.510Z,18.39
2018-06-16T21:50:12.647Z,18.25
2018-06-16T21:52:40.760Z,18.14
2018-06-16T21:55:09.113Z,18.01
2018-06-16T21:57:37.192Z,17.95
2018-06-16T22:00:08.815Z,17.91
2018-06-16T22:02:36.892Z,17.90
2018-06-16T22:05:05.706Z,17.88
2018-06-16T22:07:33.780Z,17.91
2018-06-16T22:10:01.894Z,17.93
2018-06-16T22:12:29.990Z,17.93
2018-06-16T22:14:58.058Z,17.95
2018-06-16T22:17:26.148Z,17.95
2018-06-16T22:19:54.337Z,17.89
2018-06-16T22:22:22.428Z,17.89
2018-06-16T22:24:50.851Z,17.92
2018-06-16T22:27:19.082Z,17.95
2018-06-16T22:29:47.134Z,17.98
2018-06-16T22:32:15.216Z,17.98
2018-06-16T22:34:43.312Z,17.91
2018-06-16T22:37:11.535Z,17.87
2018-06-16T22:39:39.595Z,17.86
2018-06-16T22:42:07.717Z,17.85
2018-06-16T22:44:35.813Z,17.85
2018-06-16T22:47:03.893Z,17.87
2018-06-16T22:49:32.155Z,17.87
2018-06-16T22:52:00.248Z,17.88
2018-06-16T22:54:28.442Z,17.93
2018-06-16T22:56:56.520Z,17.92
2018-06-16T22:59:24.714Z,17.88
2018-06-16T23:01:52.844Z,17.87
2018-06-16T23:04:20.939Z,17.87
2018-06-16T23:06:49.029Z,17.91
2018-06-16T23:09:17.136Z,17.94
2018-06-16T23:11:45.204Z,17.95
2018-06-16T23:14:13.339Z,17.95
2018-06-16T23:16:41.443Z,17.96
2018-06-16T23:19:09.505Z,17.96
2018-06-16T23:21:37.780Z,17.98
2018-06-16T23:24:05.904Z,17.99
2018-06-16T23:26:33.967Z,17.99
2018-06-16T23:29:02.081Z,18.00
2018-06-16T23:31:30.184Z,17.99
2018-06-16T23:33:58.275Z,18.00
2018-06-16T23:36:26.342Z,18.02
2018-06-16T23:38:54.409Z,18.05
2018-06-16T23:41:22.507Z,18.07
2018-06-16T23:43:50.588Z,18.11
2018-06-16T23:46:18.820Z,18.11
2018-06-16T23:48:46.903Z,18.13
2018-06-16T23:51:14.987Z,18.14
2018-06-16T23:53:43.089Z,18.11
2018-06-16T23:56:11.224Z,18.08
2018-06-16T23:58:39.543Z,18.06
